Independence of the Seas — C6WW4 — position and weather

sailwx.info

Track history (hours):
 
Tides and Currents Weather Stations Pressure Air Temp Water Temp Dewpoint Dewpoint Depression Visibility Wind Speed Wind Dir Waves Ship Positions

Independence of the Seas

Last reported at 2016-Feb-05 00:33 UTC. Time now 2016-Feb-06 00:02 UTC.
Position N 25°37' W 079°53'.

Length 339 m; draft 8.8 m.

Type: Passenger vessel. MMSI: 309374000.

Date/timePositionNaut miles runAvg speedWind from/ knotsBaromVisibWave heightAir tempDewpointWater temp
2016-Feb-05 00:33N 25°37' W 079°53'5 8.7
2016-Feb-05 00:00N 25°42' W 079°54'1227.3 230 / 221016.0 5.4 1.024.0 27.0
2016-Feb-04 23:33N 25°53' W 079°58'1413.6
2016-Feb-04 22:32N 26°06' W 080°04'3 0.2
2016-Feb-04 09:10N 26°05' W 080°07'6 9.2
2016-Feb-04 08:28N 26°04' W 080°00'2022.4
2016-Feb-04 07:34N 25°44' W 079°60'  
2016-Feb-01 22:19N 20°29' W 086°59'0 0.0
2016-Feb-01 21:33N 20°29' W 086°59'0 0.0
2016-Feb-01 20:30N 20°29' W 086°59'0 0.0
2016-Feb-01 19:33N 20°29' W 086°59'0 0.0
2016-Feb-01 18:33N 20°29' W 086°59'78 6.2
2016-Feb-01 06:00N 21°18' W 085°54'41115.3 140 / 131015.0 5.4 0.526.024.627.0
2016-Jan-31 03:05N 25°32' W 080°01'816.2
2016-Jan-31 02:34N 25°40' W 080°01'1616.3
2016-Jan-31 01:34N 25°56' W 080°02'1010.0
2016-Jan-31 00:34N 26°05' W 080°07'0 0.1
2016-Jan-30 23:24N 26°05' W 080°07'0 0.0
2016-Jan-30 22:33N 26°05' W 080°07'0 0.0
2016-Jan-30 21:24N 26°05' W 080°07'0 0.0
2016-Jan-30 20:27N 26°05' W 080°07'0 0.0
2016-Jan-30 19:27N 26°05' W 080°07'0 0.0
2016-Jan-30 18:27N 26°05' W 080°07'0 0.0
2016-Jan-30 17:30N 26°05' W 080°07'0 0.0
2016-Jan-30 16:30N 26°05' W 080°07'0 0.0
2016-Jan-30 15:30N 26°05' W 080°07'0 0.0
2016-Jan-30 14:33N 26°05' W 080°07'0 0.0
2016-Jan-30 13:30N 26°05' W 080°07'0 0.0
2016-Jan-30 12:33N 26°05' W 080°07'2 1.8
2016-Jan-30 11:33N 26°06' W 080°05'1212.3
2016-Jan-30 10:33N 25°55' W 079°58'1717.4
2016-Jan-30 09:33N 25°38' W 079°53'2818.0
2016-Jan-30 08:00N 25°12' W 079°42'15619.5 360 / 191017.0 5.4 0.519.014.125.0
2016-Jan-30 00:00N 22°48' W 078°36'26210.9 010 / 261016.0 5.4 1.022.0 27.0
2016-Jan-29 00:00N 18°42' W 077°00'25910.8 140 / 321012.0 5.4 1.527.0 26.0
2016-Jan-28 00:00N 19°54' W 072°36'53211.7 180 / 51014.0 5.4 0.526.0 26.0
2016-Jan-26 02:33N 25°34' W 080°01'1514.8
2016-Jan-26 01:33N 25°49' W 080°01'  
Track history (hours):
 
Tides and Currents Weather Stations Pressure Air Temp Water Temp Dewpoint Dewpoint Depression Visibility Wind Speed Wind Dir Waves Ship Positions

Independence of the Seas

Last reported at 2016-Feb-05 00:33 UTC. Time now 2016-Feb-06 00:02 UTC.
Position N 25°37' W 079°53'.

Length 339 m; draft 8.8 m.

Type: Passenger vessel. MMSI: 309374000.

Date/timePositionNaut miles runAvg speedWind from/ knotsBaromVisibWave heightAir tempDewpointWater temp
2016-Feb-05 00:33N 25°37' W 079°53'5 8.7
2016-Feb-05 00:00N 25°42' W 079°54'1227.3 230 / 221016.0 5.4 1.024.0 27.0
2016-Feb-04 23:33N 25°53' W 079°58'1413.6
2016-Feb-04 22:32N 26°06' W 080°04'3 0.2
2016-Feb-04 09:10N 26°05' W 080°07'6 9.2
2016-Feb-04 08:28N 26°04' W 080°00'2022.4
2016-Feb-04 07:34N 25°44' W 079°60'  
2016-Feb-01 22:19N 20°29' W 086°59'0 0.0
2016-Feb-01 21:33N 20°29' W 086°59'0 0.0
2016-Feb-01 20:30N 20°29' W 086°59'0 0.0
2016-Feb-01 19:33N 20°29' W 086°59'0 0.0
2016-Feb-01 18:33N 20°29' W 086°59'78 6.2
2016-Feb-01 06:00N 21°18' W 085°54'41115.3 140 / 131015.0 5.4 0.526.024.627.0
2016-Jan-31 03:05N 25°32' W 080°01'816.2
2016-Jan-31 02:34N 25°40' W 080°01'1616.3
2016-Jan-31 01:34N 25°56' W 080°02'1010.0
2016-Jan-31 00:34N 26°05' W 080°07'0 0.1
2016-Jan-30 23:24N 26°05' W 080°07'0 0.0
2016-Jan-30 22:33N 26°05' W 080°07'0 0.0
2016-Jan-30 21:24N 26°05' W 080°07'0 0.0
2016-Jan-30 20:27N 26°05' W 080°07'0 0.0
2016-Jan-30 19:27N 26°05' W 080°07'0 0.0
2016-Jan-30 18:27N 26°05' W 080°07'0 0.0
2016-Jan-30 17:30N 26°05' W 080°07'0 0.0
2016-Jan-30 16:30N 26°05' W 080°07'0 0.0
2016-Jan-30 15:30N 26°05' W 080°07'0 0.0
2016-Jan-30 14:33N 26°05' W 080°07'0 0.0
2016-Jan-30 13:30N 26°05' W 080°07'0 0.0
2016-Jan-30 12:33N 26°05' W 080°07'2 1.8
2016-Jan-30 11:33N 26°06' W 080°05'1212.3
2016-Jan-30 10:33N 25°55' W 079°58'1717.4
2016-Jan-30 09:33N 25°38' W 079°53'2818.0
2016-Jan-30 08:00N 25°12' W 079°42'15619.5 360 / 191017.0 5.4 0.519.014.125.0
2016-Jan-30 00:00N 22°48' W 078°36'26210.9 010 / 261016.0 5.4 1.022.0 27.0
2016-Jan-29 00:00N 18°42' W 077°00'25910.8 140 / 321012.0 5.4 1.527.0 26.0
2016-Jan-28 00:00N 19°54' W 072°36'53211.7 180 / 51014.0 5.4 0.526.0 26.0
2016-Jan-26 02:33N 25°34' W 080°01'1514.8
2016-Jan-26 01:33N 25°49' W 080°01'  

Dump ship's entire track history